createdAt,value
2022-08-04T00:00:30.939Z,4.00
2022-08-04T00:03:11.830Z,3.80
2022-08-04T00:05:44.693Z,3.95
2022-08-04T00:08:16.532Z,3.97
2022-08-04T00:10:46.632Z,4.10
2022-08-04T00:13:14.309Z,4.03
2022-08-04T00:15:42.663Z,4.35
2022-08-04T00:18:16.043Z,4.15
2022-08-04T00:20:43.954Z,4.30
2022-08-04T00:23:11.860Z,4.18
2022-08-04T00:25:40.712Z,4.32
2022-08-04T00:28:08.236Z,3.90
2022-08-04T00:30:35.784Z,3.95
2022-08-04T00:33:03.763Z,3.88
2022-08-04T00:35:33.070Z,4.28
2022-08-04T00:38:00.586Z,4.22
2022-08-04T00:40:32.209Z,4.40
2022-08-04T00:43:05.040Z,4.35
2022-08-04T00:46:15.354Z,3.97
2022-08-04T00:48:40.941Z,3.90
2022-08-04T00:51:12.745Z,4.53
2022-08-04T00:53:49.919Z,3.70
2022-08-04T00:56:24.695Z,3.80
2022-08-04T00:58:58.340Z,3.60
2022-08-04T01:01:34.379Z,4.03
2022-08-04T01:04:04.440Z,3.72
2022-08-04T01:06:38.907Z,3.90
2022-08-04T01:09:21.061Z,4.07
2022-08-04T01:12:01.602Z,3.58
2022-08-04T01:14:33.334Z,3.80
2022-08-04T01:17:06.126Z,3.80
2022-08-04T01:19:54.126Z,4.07
2022-08-04T01:22:36.157Z,3.63
2022-08-04T01:25:08.543Z,4.05
2022-08-04T01:27:47.678Z,3.80
2022-08-04T01:30:17.140Z,3.40
2022-08-04T01:32:49.521Z,3.60
2022-08-04T01:35:47.505Z,4.10
2022-08-04T01:38:20.987Z,3.13
2022-08-04T01:40:51.533Z,3.78
2022-08-04T01:43:19.183Z,3.47
2022-08-04T01:45:50.607Z,3.33
2022-08-04T01:48:19.422Z,3.92
2022-08-04T01:50:47.036Z,3.53
2022-08-04T01:53:20.823Z,3.90
2022-08-04T01:55:54.390Z,3.55
2022-08-04T01:58:24.532Z,3.50
2022-08-04T02:00:59.745Z,3.50
2022-08-04T02:04:20.160Z,3.90
2022-08-04T02:06:19.866Z,3.40
2022-08-04T02:08:51.989Z,3.83
2022-08-04T02:11:21.631Z,3.90
2022-08-04T02:13:53.836Z,3.28
2022-08-04T02:16:26.030Z,3.65
2022-08-04T02:19:01.107Z,3.92
2022-08-04T02:21:28.911Z,3.58
2022-08-04T02:24:14.099Z,3.55
2022-08-04T02:26:42.785Z,3.50
2022-08-04T02:29:18.035Z,3.28
2022-08-04T02:31:49.398Z,3.58
2022-08-04T02:34:23.058Z,3.13
2022-08-04T02:36:51.704Z,3.30
2022-08-04T02:39:20.765Z,3.38
2022-08-04T02:41:48.741Z,3.20
2022-08-04T02:44:20.997Z,3.95
2022-08-04T02:46:52.325Z,4.03
2022-08-04T02:49:20.482Z,3.92
2022-08-04T02:51:52.406Z,3.38
2022-08-04T02:54:33.800Z,3.47
2022-08-04T02:57:01.859Z,3.55
2022-08-04T02:59:42.027Z,3.40
2022-08-04T03:02:10.961Z,3.78
2022-08-04T03:04:48.851Z,3.80
2022-08-04T03:07:30.330Z,3.45
2022-08-04T03:10:16.904Z,3.90
2022-08-04T03:13:11.364Z,3.75
2022-08-04T03:15:54.236Z,3.45
2022-08-04T03:18:38.098Z,3.72
2022-08-04T03:21:37.408Z,3.83
2022-08-04T03:24:22.673Z,3.60
2022-08-04T03:27:08.851Z,3.63
2022-08-04T03:29:50.385Z,3.80
2022-08-04T03:32:35.495Z,3.63
2022-08-04T03:35:13.664Z,3.83
2022-08-04T03:38:01.744Z,3.83
2022-08-04T03:40:34.486Z,3.92
2022-08-04T03:43:57.850Z,4.00
2022-08-04T03:46:26.419Z,4.50
2022-08-04T03:48:59.452Z,4.05
2022-08-04T03:51:52.948Z,4.03
2022-08-04T03:54:38.145Z,4.32
2022-08-04T03:57:16.236Z,4.88
2022-08-04T03:59:51.495Z,4.45
2022-08-04T04:02:36.794Z,4.63
2022-08-04T04:05:27.936Z,3.92
2022-08-04T04:08:19.137Z,4.40
2022-08-04T04:11:14.706Z,4.40
2022-08-04T04:14:00.559Z,4.20
2022-08-04T04:16:39.505Z,4.55
2022-08-04T04:19:21.579Z,4.70
2022-08-04T04:21:58.923Z,4.10
2022-08-04T04:24:34.534Z,4.50
2022-08-04T04:27:09.702Z,4.88
2022-08-04T04:29:46.451Z,4.70
2022-08-04T04:32:22.603Z,4.80
2022-08-04T04:34:55.004Z,4.63
2022-08-04T04:37:30.436Z,4.82
2022-08-04T04:40:05.595Z,4.93
2022-08-04T04:42:42.676Z,4.90
2022-08-04T04:45:16.013Z,4.93
2022-08-04T04:48:08.725Z,5.07
2022-08-04T04:50:48.170Z,4.50
2022-08-04T04:53:21.452Z,5.03
2022-08-04T04:55:54.159Z,5.00
2022-08-04T04:58:23.295Z,4.97
2022-08-04T05:01:11.506Z,4.55
2022-08-04T05:03:58.162Z,4.88
2022-08-04T05:06:33.888Z,5.30
2022-08-04T05:09:08.507Z,4.55
2022-08-04T05:11:52.219Z,5.35
2022-08-04T05:14:35.801Z,4.63
2022-08-04T05:17:13.668Z,4.55
2022-08-04T05:19:46.288Z,4.80
2022-08-04T05:22:18.445Z,5.13
2022-08-04T05:24:47.108Z,4.93
2022-08-04T05:27:18.122Z,4.60
2022-08-04T05:29:49.675Z,4.88
2022-08-04T05:32:17.909Z,4.78
2022-08-04T05:34:48.865Z,4.95
2022-08-04T05:37:17.356Z,4.93
2022-08-04T05:39:47.364Z,4.80
2022-08-04T05:42:15.356Z,4.90
2022-08-04T05:44:48.949Z,4.45
2022-08-04T05:47:20.325Z,4.68
2022-08-04T05:50:01.661Z,4.38
2022-08-04T05:52:30.336Z,4.63
2022-08-04T05:54:58.181Z,4.72
2022-08-04T05:57:25.954Z,4.40
2022-08-04T05:59:56.735Z,4.10
2022-08-04T06:02:24.862Z,4.30
2022-08-04T06:04:53.233Z,4.50
2022-08-04T06:07:20.971Z,4.32
2022-08-04T06:09:48.625Z,3.78
2022-08-04T06:12:17.184Z,3.90
2022-08-04T06:14:45.396Z,3.83
2022-08-04T06:18:34.129Z,3.78
2022-08-04T06:20:20.149Z,3.70
2022-08-04T06:22:51.552Z,4.00
2022-08-04T06:25:21.944Z,3.70
2022-08-04T06:27:50.389Z,3.65
2022-08-04T06:30:19.458Z,3.60
2022-08-04T06:33:03.420Z,3.92
2022-08-04T06:35:32.563Z,4.10
2022-08-04T06:38:01.877Z,3.60
2022-08-04T06:40:33.340Z,3.63
2022-08-04T06:43:03.252Z,3.53
2022-08-04T06:45:31.298Z,3.53
2022-08-04T06:48:01.018Z,4.07
2022-08-04T06:51:29.302Z,3.75
2022-08-04T06:53:16.633Z,3.70
2022-08-04T06:55:45.251Z,3.33
2022-08-04T06:58:13.285Z,3.80
2022-08-04T07:00:42.747Z,3.58
2022-08-04T07:03:11.697Z,3.33
2022-08-04T07:05:39.491Z,3.20
2022-08-04T07:08:07.070Z,3.30
2022-08-04T07:10:35.089Z,2.75
2022-08-04T07:13:03.480Z,2.92
2022-08-04T07:15:31.184Z,2.75
2022-08-04T07:18:00.112Z,3.42
2022-08-04T07:20:34.593Z,2.58
2022-08-04T07:23:04.261Z,3.10
2022-08-04T07:26:11.085Z,2.78
2022-08-04T07:28:19.522Z,2.90
2022-08-04T07:30:48.334Z,2.40
2022-08-04T07:33:16.708Z,2.60
2022-08-04T07:36:06.018Z,2.63
2022-08-04T07:38:37.711Z,2.75
2022-08-04T07:44:01.433Z,2.60
2022-08-04T07:46:31.508Z,2.67
2022-08-04T07:49:00.751Z,2.60
2022-08-04T07:51:30.807Z,2.72
2022-08-04T07:53:58.868Z,2.83
2022-08-04T07:56:26.854Z,2.30
2022-08-04T07:58:54.545Z,2.70
2022-08-04T08:01:22.577Z,2.33
2022-08-04T08:03:50.589Z,2.67
2022-08-04T08:06:32.887Z,2.50
2022-08-04T08:09:13.667Z,2.90
2022-08-04T08:12:38.166Z,3.15
2022-08-04T08:14:30.452Z,2.53
2022-08-04T08:16:59.227Z,2.85
2022-08-04T08:19:26.759Z,2.70
2022-08-04T08:21:58.946Z,2.47
2022-08-04T08:24:29.401Z,2.58
2022-08-04T08:26:57.177Z,2.42
2022-08-04T08:29:25.690Z,2.60
2022-08-04T08:31:56.570Z,2.58
2022-08-04T08:34:28.230Z,2.63
2022-08-04T08:37:00.221Z,2.65
2022-08-04T08:39:35.116Z,2.63
2022-08-04T08:42:21.302Z,2.70
2022-08-04T08:44:57.999Z,2.60
2022-08-04T08:48:05.711Z,2.70
2022-08-04T08:50:33.339Z,2.85
2022-08-04T08:53:15.239Z,2.80
2022-08-04T08:55:50.321Z,2.67
2022-08-04T08:58:25.244Z,2.92
2022-08-04T09:00:55.205Z,2.65
2022-08-04T09:03:28.858Z,3.00
2022-08-04T09:06:05.735Z,2.70
2022-08-04T09:08:45.597Z,2.55
2022-08-04T09:11:16.322Z,2.47
2022-08-04T09:13:46.851Z,2.28
2022-08-04T09:16:17.356Z,2.17
2022-08-04T09:18:47.928Z,2.30
2022-08-04T09:21:19.637Z,2.30
2022-08-04T09:23:50.228Z,2.53
2022-08-04T09:26:21.790Z,2.20
2022-08-04T09:28:54.544Z,1.90
2022-08-04T09:31:24.293Z,1.83
2022-08-04T09:33:57.191Z,2.40
2022-08-04T09:36:29.476Z,1.95
2022-08-04T09:39:15.049Z,1.98
2022-08-04T09:41:52.873Z,2.00
2022-08-04T09:44:50.228Z,1.90
2022-08-04T09:47:14.385Z,1.98
2022-08-04T09:49:44.852Z,1.90
2022-08-04T09:52:17.929Z,1.88
2022-08-04T09:54:48.019Z,1.90
2022-08-04T09:57:20.977Z,1.70
2022-08-04T09:59:54.694Z,2.55
2022-08-04T10:02:23.502Z,2.10
2022-08-04T10:04:54.289Z,1.95
2022-08-04T10:07:39.817Z,1.92
2022-08-04T10:10:20.128Z,1.73
2022-08-04T10:13:03.463Z,1.60
2022-08-04T10:15:35.070Z,1.70
2022-08-04T10:18:12.761Z,1.80
2022-08-04T10:20:57.374Z,1.80
2022-08-04T10:23:32.979Z,2.05
2022-08-04T10:26:25.807Z,2.10
2022-08-04T10:28:57.609Z,1.90
2022-08-04T10:31:27.715Z,2.05
2022-08-04T10:33:59.734Z,1.80
2022-08-04T10:36:29.503Z,1.83
2022-08-04T10:41:28.617Z,1.80
2022-08-04T10:44:01.600Z,1.73
2022-08-04T10:46:32.198Z,1.83
2022-08-04T10:49:02.425Z,1.77
2022-08-04T10:51:58.058Z,2.00
2022-08-04T10:54:25.869Z,1.70
2022-08-04T10:56:56.921Z,1.70
2022-08-04T10:59:29.356Z,1.70
2022-08-04T11:02:03.560Z,1.80
2022-08-04T11:04:38.420Z,1.92
2022-08-04T11:07:06.397Z,1.30
2022-08-04T11:09:34.284Z,1.50
2022-08-04T11:12:04.654Z,1.30
2022-08-04T11:14:36.137Z,2.00
2022-08-04T11:17:06.296Z,1.73
2022-08-04T11:19:44.705Z,1.70
2022-08-04T11:22:16.313Z,1.95
2022-08-04T11:24:46.282Z,1.60
2022-08-04T11:27:15.909Z,1.65
2022-08-04T11:29:51.872Z,1.50
2022-08-04T11:34:52.981Z,1.48
2022-08-04T11:37:24.059Z,1.65
2022-08-04T11:39:53.671Z,1.50
2022-08-04T11:42:22.827Z,1.60
2022-08-04T11:44:53.344Z,1.70
2022-08-04T11:47:25.954Z,1.92
2022-08-04T11:49:57.251Z,1.40
2022-08-04T11:52:26.548Z,1.63
2022-08-04T11:54:55.180Z,1.50
2022-08-04T11:57:35.048Z,1.50
2022-08-04T12:00:07.747Z,1.35
2022-08-04T12:02:54.185Z,1.52
2022-08-04T12:05:36.716Z,1.58
2022-08-04T12:08:12.243Z,1.63
2022-08-04T12:10:43.479Z,1.73
2022-08-04T12:13:21.967Z,1.70
2022-08-04T12:15:58.211Z,1.70
2022-08-04T12:18:28.877Z,1.50
2022-08-04T12:20:58.935Z,1.63
2022-08-04T12:23:30.885Z,1.63
2022-08-04T12:26:01.669Z,1.83
2022-08-04T12:28:46.228Z,1.55
2022-08-04T12:31:20.239Z,1.27
2022-08-04T12:34:05.145Z,1.33
2022-08-04T12:36:36.944Z,1.55
2022-08-04T12:39:07.694Z,1.58
2022-08-04T12:41:37.528Z,1.50
2022-08-04T12:44:05.783Z,1.33
2022-08-04T12:46:36.707Z,1.40
2022-08-04T12:49:04.969Z,1.20
2022-08-04T12:52:08.300Z,1.40
2022-08-04T12:54:29.084Z,1.50
2022-08-04T12:56:59.053Z,1.10
2022-08-04T12:59:26.619Z,1.10
2022-08-04T13:02:07.248Z,1.10
2022-08-04T13:04:42.428Z,1.30
2022-08-04T13:07:11.888Z,1.25
2022-08-04T13:09:39.441Z,1.38
2022-08-04T13:12:16.221Z,1.35
2022-08-04T13:14:45.120Z,1.30
2022-08-04T13:17:14.116Z,1.33
2022-08-04T13:22:09.750Z,1.30
2022-08-04T13:24:56.798Z,1.40
2022-08-04T13:27:26.967Z,1.45
2022-08-04T13:30:00.749Z,1.42
2022-08-04T13:32:33.116Z,1.40
2022-08-04T13:35:01.288Z,1.30
2022-08-04T13:37:33.018Z,1.30
2022-08-04T13:40:01.079Z,1.20
2022-08-04T13:42:29.181Z,1.20
2022-08-04T13:44:58.159Z,1.20
2022-08-04T13:47:28.035Z,1.35
2022-08-04T13:50:17.468Z,1.00
2022-08-04T13:52:45.478Z,1.25
2022-08-04T13:55:20.175Z,1.27
2022-08-04T13:57:50.929Z,1.30
2022-08-04T14:00:29.373Z,1.20
2022-08-04T14:03:02.643Z,1.30
2022-08-04T14:05:58.736Z,1.20
2022-08-04T14:08:21.209Z,0.95
2022-08-04T14:10:55.253Z,1.15
2022-08-04T14:13:30.446Z,1.15
2022-08-04T14:16:16.344Z,1.08
2022-08-04T14:18:43.884Z,0.90
2022-08-04T14:21:13.391Z,1.00
2022-08-04T14:23:49.667Z,1.33
2022-08-04T14:26:18.347Z,1.10
2022-08-04T14:34:09.657Z,1.02
2022-08-04T14:37:17.721Z,1.00
2022-08-04T14:39:37.913Z,0.75
2022-08-04T14:42:05.757Z,0.82
2022-08-04T14:44:33.296Z,0.93
2022-08-04T14:47:01.908Z,1.00
2022-08-04T14:52:01.536Z,1.00
2022-08-04T14:54:30.213Z,0.98
2022-08-04T14:59:25.890Z,1.10
2022-08-04T15:02:00.539Z,0.82
2022-08-04T15:04:29.426Z,1.05
2022-08-04T15:06:58.595Z,0.98
2022-08-04T15:09:26.514Z,0.90
2022-08-04T15:11:54.029Z,1.20
2022-08-04T15:14:36.915Z,1.10
2022-08-04T15:17:11.891Z,1.10
2022-08-04T15:19:40.553Z,1.20
2022-08-04T15:22:24.596Z,1.20
2022-08-04T15:24:54.996Z,1.00
2022-08-04T15:27:24.828Z,1.20
2022-08-04T15:30:00.259Z,1.10
2022-08-04T15:32:29.489Z,0.90
2022-08-04T15:35:02.495Z,0.90
2022-08-04T15:37:37.410Z,1.30
2022-08-04T15:40:08.388Z,0.98
2022-08-04T15:42:39.420Z,1.00
2022-08-04T15:45:20.972Z,0.93
2022-08-04T15:48:06.963Z,1.05
2022-08-04T15:50:34.476Z,0.90
2022-08-04T15:53:10.775Z,0.98
2022-08-04T15:55:41.538Z,1.00
2022-08-04T15:58:11.355Z,1.00
2022-08-04T16:00:57.652Z,1.20
2022-08-04T16:03:58.976Z,1.10
2022-08-04T16:06:49.134Z,1.08
2022-08-04T16:09:45.846Z,1.20
2022-08-04T16:12:52.885Z,0.90
2022-08-04T16:15:37.060Z,0.82
2022-08-04T16:18:04.687Z,1.05
2022-08-04T16:20:33.260Z,1.02
2022-08-04T16:23:04.299Z,1.00
2022-08-04T16:25:46.396Z,0.80
2022-08-04T16:28:29.002Z,0.95
2022-08-04T16:31:00.500Z,0.85
2022-08-04T16:33:28.499Z,1.10
2022-08-04T16:36:16.628Z,0.82
2022-08-04T16:39:06.835Z,1.10
2022-08-04T16:41:40.374Z,0.95
2022-08-04T16:44:50.378Z,1.15
2022-08-04T16:47:22.584Z,1.08
2022-08-04T16:50:02.265Z,0.95
2022-08-04T16:52:29.793Z,1.02
2022-08-04T16:54:59.719Z,1.00
2022-08-04T16:57:28.581Z,1.10
2022-08-04T16:59:56.092Z,1.00
2022-08-04T17:02:27.406Z,1.05
2022-08-04T17:05:07.194Z,1.10
2022-08-04T17:07:58.281Z,1.00
2022-08-04T17:10:39.289Z,1.10
2022-08-04T17:14:02.150Z,1.30
2022-08-04T17:16:17.777Z,1.27
2022-08-04T17:18:46.753Z,1.30
2022-08-04T17:21:15.744Z,1.10
2022-08-04T17:24:15.572Z,1.00
2022-08-04T17:26:40.317Z,1.20
2022-08-04T17:29:10.454Z,1.00
2022-08-04T17:31:40.697Z,1.02
2022-08-04T17:34:15.829Z,1.00
2022-08-04T17:36:44.447Z,0.85
2022-08-04T17:39:16.967Z,1.20
2022-08-04T17:41:48.706Z,1.25
2022-08-04T17:44:18.420Z,1.27
2022-08-04T17:46:48.452Z,1.20
2022-08-04T17:49:20.966Z,1.15
2022-08-04T17:52:04.912Z,1.55
2022-08-04T17:54:38.877Z,1.20
2022-08-04T17:57:15.203Z,1.50
2022-08-04T18:05:27.317Z,1.55
2022-08-04T18:08:40.410Z,1.77
2022-08-04T18:11:02.822Z,2.00
2022-08-04T18:13:31.335Z,1.65
2022-08-04T18:16:22.157Z,1.65
2022-08-04T18:19:05.461Z,1.40
2022-08-04T18:21:34.299Z,1.40
2022-08-04T18:24:14.951Z,1.48
2022-08-04T18:26:42.584Z,1.60
2022-08-04T18:29:31.110Z,1.90
2022-08-04T18:31:59.563Z,1.70
2022-08-04T18:34:27.853Z,1.48
2022-08-04T18:36:59.211Z,1.85
2022-08-04T18:40:10.045Z,2.30
2022-08-04T18:42:16.114Z,1.50
2022-08-04T18:44:52.100Z,1.70
2022-08-04T18:47:23.071Z,1.73
2022-08-04T18:52:45.111Z,1.70
2022-08-04T18:55:13.344Z,1.80
2022-08-04T18:58:06.497Z,1.80
2022-08-04T19:00:39.221Z,2.13
2022-08-04T19:03:16.416Z,1.70
2022-08-04T19:08:34.538Z,1.80
2022-08-04T19:11:38.447Z,1.52
2022-08-04T19:13:54.795Z,2.38
2022-08-04T19:16:40.668Z,2.60
2022-08-04T19:19:08.803Z,1.90
2022-08-04T19:22:01.264Z,1.83
2022-08-04T19:24:31.296Z,1.90
2022-08-04T19:27:06.913Z,2.20
2022-08-04T19:29:38.088Z,2.03
2022-08-04T19:34:59.535Z,2.20
2022-08-04T19:37:57.409Z,1.75
2022-08-04T19:40:16.575Z,2.47
2022-08-04T19:43:14.453Z,2.08
2022-08-04T19:45:44.976Z,1.90
2022-08-04T19:48:19.395Z,1.80
2022-08-04T19:50:47.596Z,2.33
2022-08-04T19:53:19.719Z,2.22
2022-08-04T19:55:50.263Z,2.28
2022-08-04T19:58:19.774Z,2.45
2022-08-04T20:00:51.407Z,2.00
2022-08-04T20:03:20.272Z,2.30
2022-08-04T20:05:53.906Z,2.63
2022-08-04T20:08:24.289Z,2.30
2022-08-04T20:10:54.672Z,2.90
2022-08-04T20:13:22.763Z,1.90
2022-08-04T20:15:57.694Z,1.80
2022-08-04T20:18:36.362Z,1.70
2022-08-04T20:21:19.800Z,1.65
2022-08-04T20:23:52.892Z,2.15
2022-08-04T20:26:21.754Z,2.20
2022-08-04T20:28:51.785Z,1.88
2022-08-04T20:31:20.126Z,3.15
2022-08-04T20:33:53.674Z,2.50
2022-08-04T20:36:22.704Z,2.00
2022-08-04T20:38:52.940Z,2.10
2022-08-04T20:41:22.125Z,2.20
2022-08-04T20:43:50.276Z,2.35
2022-08-04T20:46:29.162Z,2.13
2022-08-04T20:48:57.540Z,1.95
2022-08-04T20:51:31.861Z,2.20
2022-08-04T20:54:01.511Z,3.03
2022-08-04T20:56:31.669Z,2.75
2022-08-04T20:58:59.372Z,3.80
2022-08-04T21:01:29.708Z,3.60
2022-08-04T21:04:27.277Z,2.30
2022-08-04T21:06:57.180Z,2.38
2022-08-04T21:09:26.539Z,2.40
2022-08-04T21:12:07.188Z,2.13
2022-08-04T21:14:36.150Z,2.33
2022-08-04T21:17:03.827Z,2.00
2022-08-04T21:19:31.818Z,2.03
2022-08-04T21:21:59.547Z,2.33
2022-08-04T21:24:27.185Z,2.20
2022-08-04T21:26:56.722Z,1.98
2022-08-04T21:29:34.655Z,1.98
2022-08-04T21:32:03.878Z,2.05
2022-08-04T21:34:39.468Z,2.05
2022-08-04T21:37:09.324Z,2.20
2022-08-04T21:45:00.301Z,1.90
2022-08-04T21:47:45.657Z,1.92
2022-08-04T21:50:14.325Z,2.28
2022-08-04T21:52:47.725Z,1.95
2022-08-04T21:55:15.286Z,2.20
2022-08-04T21:57:42.837Z,2.50
2022-08-04T22:00:19.412Z,2.40
2022-08-04T22:02:47.350Z,1.98
2022-08-04T22:05:21.212Z,2.22
2022-08-04T22:07:50.944Z,2.13
2022-08-04T22:10:32.323Z,2.30
2022-08-04T22:13:07.970Z,2.33
2022-08-04T22:16:03.836Z,2.40
2022-08-04T22:18:27.474Z,2.30
2022-08-04T22:20:55.593Z,2.40
2022-08-04T22:26:20.165Z,2.13
2022-08-04T22:28:54.620Z,2.20
2022-08-04T22:31:24.871Z,2.22
2022-08-04T22:33:56.148Z,2.33
2022-08-04T22:36:24.837Z,2.13
2022-08-04T22:39:01.531Z,2.63
2022-08-04T22:41:48.550Z,2.53
2022-08-04T22:44:16.999Z,2.10
2022-08-04T22:46:49.624Z,3.05
2022-08-04T22:49:17.145Z,2.63
2022-08-04T22:51:48.407Z,2.42
2022-08-04T22:54:18.348Z,2.70
2022-08-04T22:56:45.868Z,2.63
2022-08-04T22:59:13.749Z,2.50
2022-08-04T23:01:58.856Z,2.88
2022-08-04T23:04:32.883Z,2.55
2022-08-04T23:07:00.867Z,2.90
2022-08-04T23:09:50.922Z,2.63
2022-08-04T23:12:27.293Z,2.47
2022-08-04T23:14:55.671Z,4.80
2022-08-04T23:17:23.440Z,4.70
2022-08-04T23:19:57.306Z,3.25
2022-08-04T23:22:41.069Z,2.97
2022-08-04T23:25:16.090Z,2.72
2022-08-04T23:27:50.997Z,2.88
2022-08-04T23:30:21.982Z,2.70
2022-08-04T23:32:57.468Z,2.60
2022-08-04T23:35:26.539Z,2.20
2022-08-04T23:37:57.852Z,2.58
2022-08-04T23:40:33.557Z,2.08
2022-08-04T23:43:17.191Z,2.50
2022-08-04T23:48:32.619Z,2.30
2022-08-04T23:51:14.944Z,2.30
2022-08-04T23:54:02.411Z,2.50
2022-08-04T23:56:30.712Z,2.42
2022-08-04T23:59:00.210Z,2.38
